createdAt,value
2018-07-30T00:00:55.217Z,99.90
2018-07-30T00:03:23.709Z,99.90
2018-07-30T00:05:52.146Z,99.90
2018-07-30T00:08:20.597Z,99.90
2018-07-30T00:10:49.056Z,99.90
2018-07-30T00:13:17.486Z,99.90
2018-07-30T00:15:45.912Z,99.90
2018-07-30T00:18:14.383Z,99.90
2018-07-30T00:20:42.824Z,99.90
2018-07-30T00:23:11.255Z,99.90
2018-07-30T00:25:39.649Z,99.90
2018-07-30T00:28:08.089Z,99.90
2018-07-30T00:30:36.516Z,99.90
2018-07-30T00:33:05.016Z,99.90
2018-07-30T00:35:33.419Z,99.90
2018-07-30T00:38:01.815Z,99.90
2018-07-30T00:40:30.322Z,99.90
2018-07-30T00:42:58.829Z,99.90
2018-07-30T00:45:27.280Z,99.90
2018-07-30T00:47:55.733Z,99.90
2018-07-30T00:50:24.129Z,99.90
2018-07-30T00:52:52.572Z,99.90
2018-07-30T00:55:20.956Z,99.90
2018-07-30T00:57:49.395Z,99.90
2018-07-30T01:00:17.814Z,99.90
2018-07-30T01:02:46.276Z,99.90
2018-07-30T01:05:14.779Z,99.90
2018-07-30T01:10:29.249Z,99.90
2018-07-30T01:12:57.725Z,99.90
2018-07-30T01:15:26.275Z,99.90
2018-07-30T01:17:54.766Z,99.90
2018-07-30T01:20:23.224Z,99.90
2018-07-30T01:22:51.647Z,99.90
2018-07-30T01:25:20.052Z,99.90
2018-07-30T01:27:48.543Z,99.90
2018-07-30T01:30:17.054Z,99.90
2018-07-30T01:32:45.505Z,99.90
2018-07-30T01:35:14.106Z,99.90
2018-07-30T01:37:42.721Z,99.90
2018-07-30T01:40:11.337Z,99.90
2018-07-30T01:42:39.952Z,99.90
2018-07-30T01:45:08.571Z,99.90
2018-07-30T01:47:37.144Z,99.90
2018-07-30T01:50:05.808Z,99.90
2018-07-30T01:55:02.637Z,99.90
2018-07-30T01:57:31.352Z,99.90
2018-07-30T01:59:59.982Z,99.90
2018-07-30T02:02:28.563Z,99.90
2018-07-30T02:04:59.115Z,99.90
2018-07-30T02:09:56.109Z,99.90
2018-07-30T02:12:24.733Z,99.90
2018-07-30T02:14:53.318Z,99.90
2018-07-30T02:17:21.930Z,99.90
2018-07-30T02:19:50.443Z,99.90
2018-07-30T02:22:19.042Z,99.90
2018-07-30T02:24:47.598Z,99.90
2018-07-30T02:27:16.254Z,99.90
2018-07-30T02:29:44.848Z,99.90
2018-07-30T02:32:13.624Z,99.90
2018-07-30T02:34:42.421Z,99.90
2018-07-30T02:37:11.033Z,99.90
2018-07-30T02:39:39.672Z,99.90
2018-07-30T02:42:08.281Z,99.90
2018-07-30T02:44:36.901Z,99.90
2018-07-30T02:47:05.558Z,99.90
2018-07-30T02:49:34.173Z,99.90
2018-07-30T02:52:02.771Z,99.90
2018-07-30T02:54:31.345Z,99.90
2018-07-30T02:56:59.903Z,99.90
2018-07-30T02:59:28.516Z,99.90
2018-07-30T03:01:57.212Z,99.90
2018-07-30T03:04:25.854Z,99.90
2018-07-30T03:06:54.438Z,99.90
2018-07-30T03:09:23.102Z,99.90
2018-07-30T03:11:51.774Z,99.90
2018-07-30T03:14:20.329Z,99.90
2018-07-30T03:16:48.824Z,99.90
2018-07-30T03:19:17.383Z,99.90
2018-07-30T03:21:45.963Z,99.90
2018-07-30T03:24:14.549Z,99.90
2018-07-30T03:26:43.187Z,99.90
2018-07-30T03:29:11.757Z,99.90
2018-07-30T03:31:40.380Z,99.90
2018-07-30T03:34:09.081Z,99.90
2018-07-30T03:36:38.150Z,99.90
2018-07-30T03:39:08.473Z,99.90
2018-07-30T03:41:37.079Z,99.90
2018-07-30T03:44:05.867Z,99.90
2018-07-30T03:46:34.323Z,99.90
2018-07-30T03:49:02.933Z,99.90
2018-07-30T03:51:31.574Z,99.90
2018-07-30T03:54:00.218Z,99.90
2018-07-30T03:56:28.753Z,99.90
2018-07-30T03:58:57.388Z,99.90
2018-07-30T04:01:25.884Z,99.90
2018-07-30T04:03:54.835Z,99.90
2018-07-30T04:06:23.364Z,99.90
2018-07-30T04:08:51.940Z,99.90
2018-07-30T04:11:20.521Z,99.90
2018-07-30T04:13:49.067Z,99.90
2018-07-30T04:16:17.521Z,99.90
2018-07-30T04:18:46.045Z,99.90
2018-07-30T04:21:14.514Z,99.90
2018-07-30T04:23:43.062Z,99.90
2018-07-30T04:26:11.578Z,99.90
2018-07-30T04:28:40.145Z,99.90
2018-07-30T04:31:08.810Z,99.90
2018-07-30T04:33:37.484Z,99.90
2018-07-30T04:36:06.086Z,99.90
2018-07-30T04:38:34.650Z,99.90
2018-07-30T04:43:31.529Z,99.90
2018-07-30T04:46:00.083Z,99.90
2018-07-30T04:48:28.611Z,99.90
2018-07-30T04:50:57.173Z,99.90
2018-07-30T04:53:25.907Z,99.90
2018-07-30T04:55:54.459Z,99.90
2018-07-30T04:58:22.876Z,99.90
2018-07-30T05:00:51.295Z,99.90
2018-07-30T05:03:19.865Z,99.90
2018-07-30T05:05:48.433Z,99.90
2018-07-30T05:08:17.036Z,99.90
2018-07-30T05:10:45.545Z,99.90
2018-07-30T05:13:14.118Z,99.90
2018-07-30T05:15:42.657Z,99.90
2018-07-30T05:18:11.332Z,99.90
2018-07-30T05:20:39.796Z,99.90
2018-07-30T05:23:08.330Z,99.90
2018-07-30T05:25:36.891Z,99.90
2018-07-30T05:28:12.165Z,99.90
2018-07-30T05:30:40.721Z,99.90
2018-07-30T05:33:09.249Z,99.90
2018-07-30T05:35:38.223Z,99.90
2018-07-30T05:38:06.771Z,99.90
2018-07-30T05:40:35.351Z,99.90
2018-07-30T05:43:04.720Z,99.90
2018-07-30T05:45:33.895Z,99.90
2018-07-30T05:48:02.588Z,99.90
2018-07-30T05:50:31.276Z,99.90
2018-07-30T05:52:59.902Z,99.90
2018-07-30T05:55:28.453Z,99.90
2018-07-30T05:57:57.018Z,99.90
2018-07-30T06:00:25.703Z,99.90
2018-07-30T06:02:54.313Z,99.90
2018-07-30T06:05:22.952Z,99.90
2018-07-30T06:07:51.690Z,99.90
2018-07-30T06:10:20.177Z,99.90
2018-07-30T06:12:48.630Z,99.90
2018-07-30T06:15:17.172Z,99.90
2018-07-30T06:17:45.681Z,99.90
2018-07-30T06:20:14.169Z,99.90
2018-07-30T06:22:42.730Z,99.90
2018-07-30T06:25:12.296Z,99.90
2018-07-30T06:27:41.776Z,99.90
2018-07-30T06:30:10.547Z,99.90
2018-07-30T06:32:39.635Z,99.90
2018-07-30T06:35:08.859Z,99.90
2018-07-30T06:37:37.837Z,99.90
2018-07-30T06:40:06.441Z,99.90
2018-07-30T06:42:34.975Z,99.90
2018-07-30T06:45:03.520Z,99.90
2018-07-30T06:47:31.980Z,99.90
2018-07-30T06:50:00.492Z,99.90
2018-07-30T06:52:29.086Z,99.90
2018-07-30T06:54:57.665Z,99.90
2018-07-30T06:57:26.421Z,99.90
2018-07-30T06:59:54.935Z,99.90
2018-07-30T07:02:23.463Z,99.90
2018-07-30T07:04:51.999Z,99.90
2018-07-30T07:07:20.703Z,99.90
2018-07-30T07:09:49.176Z,99.90
2018-07-30T07:12:17.660Z,99.90
2018-07-30T07:17:14.229Z,99.90
2018-07-30T07:19:42.656Z,99.90
2018-07-30T07:22:11.280Z,99.30
2018-07-30T07:24:39.705Z,98.00
2018-07-30T07:27:08.241Z,97.70
2018-07-30T07:29:36.643Z,97.20
2018-07-30T07:32:05.401Z,97.10
2018-07-30T07:34:33.888Z,97.10
2018-07-30T07:37:02.612Z,97.20
2018-07-30T07:39:31.062Z,97.60
2018-07-30T07:41:59.567Z,97.40
2018-07-30T07:44:28.055Z,96.30
2018-07-30T07:46:56.545Z,96.40
2018-07-30T07:49:25.029Z,95.00
2018-07-30T07:51:54.294Z,93.20
2018-07-30T07:54:22.713Z,90.90
2018-07-30T07:56:51.180Z,87.70
2018-07-30T07:59:19.681Z,86.40
2018-07-30T08:01:49.084Z,85.50
2018-07-30T08:04:17.591Z,85.90
2018-07-30T08:06:46.135Z,84.50
2018-07-30T08:09:14.581Z,84.70
2018-07-30T08:11:43.148Z,85.90
2018-07-30T08:14:11.649Z,87.00
2018-07-30T08:16:40.113Z,87.70
2018-07-30T08:19:08.711Z,86.10
2018-07-30T08:21:37.381Z,88.90
2018-07-30T08:24:06.056Z,86.40
2018-07-30T08:26:34.545Z,83.80
2018-07-30T08:29:03.085Z,80.00
2018-07-30T08:31:32.170Z,79.60
2018-07-30T08:34:00.629Z,80.30
2018-07-30T08:38:57.221Z,77.80
2018-07-30T08:41:26.026Z,75.70
2018-07-30T08:43:54.648Z,75.70
2018-07-30T08:46:23.160Z,76.00
2018-07-30T08:48:51.639Z,76.50
2018-07-30T08:51:20.049Z,73.40
2018-07-30T08:53:48.429Z,72.70
2018-07-30T08:56:17.095Z,72.30
2018-07-30T08:58:45.641Z,69.60
2018-07-30T09:01:14.083Z,69.30
2018-07-30T09:03:42.610Z,66.80
2018-07-30T09:06:11.164Z,66.60
2018-07-30T09:08:39.801Z,64.00
2018-07-30T09:11:08.265Z,65.50
2018-07-30T09:13:36.784Z,64.80
2018-07-30T09:16:04.536Z,64.00
2018-07-30T09:18:32.951Z,62.50
2018-07-30T09:21:01.641Z,60.20
2018-07-30T09:23:30.254Z,62.60
2018-07-30T09:25:58.768Z,63.30
2018-07-30T09:28:27.245Z,61.80
2018-07-30T09:30:55.664Z,62.40
2018-07-30T09:33:24.160Z,62.60
2018-07-30T09:35:52.579Z,63.30
2018-07-30T09:38:21.087Z,64.50
2018-07-30T09:40:49.508Z,64.30
2018-07-30T09:43:17.964Z,63.50
2018-07-30T09:45:46.615Z,64.20
2018-07-30T09:48:15.188Z,63.60
2018-07-30T09:50:43.644Z,65.10
2018-07-30T09:53:12.341Z,67.20
2018-07-30T09:55:40.860Z,66.10
2018-07-30T09:58:09.321Z,66.40
2018-07-30T10:00:43.187Z,67.10
2018-07-30T10:03:11.684Z,68.10
2018-07-30T10:05:40.400Z,69.40
2018-07-30T10:08:08.936Z,69.80
2018-07-30T10:10:37.353Z,71.40
2018-07-30T10:13:05.784Z,70.50
2018-07-30T10:15:34.336Z,72.80
2018-07-30T10:18:02.797Z,73.40
2018-07-30T10:20:31.338Z,72.70
2018-07-30T10:22:59.877Z,72.40
2018-07-30T10:25:28.288Z,71.80
2018-07-30T10:27:56.760Z,72.70
2018-07-30T10:30:25.256Z,73.30
2018-07-30T10:32:53.852Z,73.00
2018-07-30T10:35:22.597Z,73.80
2018-07-30T10:37:51.056Z,73.40
2018-07-30T10:40:19.637Z,73.30
2018-07-30T10:42:48.108Z,74.20
2018-07-30T10:45:16.549Z,75.50
2018-07-30T10:50:13.538Z,75.20
2018-07-30T10:55:10.196Z,76.80
2018-07-30T10:57:38.866Z,75.40
2018-07-30T11:00:07.531Z,75.30
2018-07-30T11:02:36.380Z,74.60
2018-07-30T11:05:05.560Z,74.50
2018-07-30T11:07:34.136Z,73.90
2018-07-30T11:10:02.796Z,74.40
2018-07-30T11:12:31.399Z,75.50
2018-07-30T11:14:59.824Z,76.60
2018-07-30T11:17:28.391Z,74.80
2018-07-30T11:19:56.948Z,75.30
2018-07-30T11:22:25.631Z,75.60
2018-07-30T11:24:54.047Z,76.50
2018-07-30T11:27:22.505Z,75.60
2018-07-30T11:29:51.068Z,75.80
2018-07-30T11:32:19.684Z,75.10
2018-07-30T11:37:16.231Z,76.10
2018-07-30T11:39:44.712Z,75.50
2018-07-30T11:42:13.280Z,75.30
2018-07-30T11:44:41.742Z,75.90
2018-07-30T11:47:10.219Z,74.30
2018-07-30T11:49:38.869Z,74.80
2018-07-30T11:52:07.936Z,73.90
2018-07-30T11:54:36.516Z,74.90
2018-07-30T11:57:05.030Z,75.10
2018-07-30T11:59:33.452Z,72.90
2018-07-30T12:02:01.957Z,73.10
2018-07-30T12:04:30.427Z,73.20
2018-07-30T12:06:58.861Z,74.60
2018-07-30T12:09:27.300Z,72.90
2018-07-30T12:11:55.688Z,72.80
2018-07-30T12:14:24.123Z,71.90
2018-07-30T12:16:52.667Z,72.60
2018-07-30T12:19:21.143Z,70.60
2018-07-30T12:21:49.588Z,70.40
2018-07-30T12:24:18.032Z,70.20
2018-07-30T12:26:46.421Z,69.70
2018-07-30T12:29:14.899Z,69.40
2018-07-30T12:31:43.404Z,69.90
2018-07-30T12:34:11.902Z,69.20
2018-07-30T12:36:40.441Z,68.80
2018-07-30T12:41:38.143Z,69.10
2018-07-30T12:44:06.940Z,67.70
2018-07-30T12:46:35.416Z,68.20
2018-07-30T12:49:04.266Z,68.60
2018-07-30T12:51:32.849Z,67.90
2018-07-30T12:54:01.284Z,67.50
2018-07-30T12:56:29.669Z,67.90
2018-07-30T12:58:58.131Z,67.60
2018-07-30T13:01:26.670Z,68.00
2018-07-30T13:03:55.573Z,67.70
2018-07-30T13:06:24.025Z,67.60
2018-07-30T13:08:52.504Z,67.70
2018-07-30T13:13:49.333Z,67.20
2018-07-30T13:18:46.400Z,68.10
2018-07-30T13:21:14.915Z,67.90
2018-07-30T13:23:43.351Z,68.30
2018-07-30T13:28:40.003Z,65.70
2018-07-30T13:31:08.552Z,66.10
2018-07-30T13:33:37.015Z,66.00
2018-07-30T13:36:05.530Z,66.30
2018-07-30T13:41:02.213Z,67.00
2018-07-30T13:43:30.655Z,66.80
2018-07-30T13:45:59.083Z,65.70
2018-07-30T13:48:27.508Z,65.90
2018-07-30T13:50:55.980Z,64.10
2018-07-30T13:53:24.440Z,65.10
2018-07-30T13:55:52.915Z,65.20
2018-07-30T13:58:21.412Z,66.60
2018-07-30T14:00:49.883Z,65.20
2018-07-30T14:03:18.297Z,62.70
2018-07-30T14:05:46.757Z,64.20
2018-07-30T14:08:15.384Z,63.80
2018-07-30T14:10:43.918Z,63.70
2018-07-30T14:13:12.363Z,63.00
2018-07-30T14:15:40.943Z,63.40
2018-07-30T14:18:09.367Z,65.00
2018-07-30T14:20:37.899Z,65.10
2018-07-30T14:25:35.373Z,64.20
2018-07-30T14:28:03.904Z,65.40
2018-07-30T14:30:32.376Z,65.60
2018-07-30T14:33:00.922Z,64.60
2018-07-30T14:35:29.836Z,64.00
2018-07-30T14:37:58.463Z,64.80
2018-07-30T14:40:27.439Z,65.30
2018-07-30T14:42:55.884Z,65.60
2018-07-30T14:45:24.611Z,64.80
2018-07-30T14:47:53.565Z,65.60
2018-07-30T14:50:22.335Z,66.20
2018-07-30T14:52:50.877Z,66.40
2018-07-30T14:55:19.400Z,65.20
2018-07-30T14:57:49.612Z,65.10
2018-07-30T15:00:18.232Z,65.10
2018-07-30T15:02:46.671Z,66.00
2018-07-30T15:05:19.359Z,65.20
2018-07-30T15:07:47.764Z,63.30
2018-07-30T15:10:16.436Z,64.80
2018-07-30T15:12:44.990Z,65.50
2018-07-30T15:15:13.572Z,64.80
2018-07-30T15:17:42.167Z,63.50
2018-07-30T15:20:10.736Z,64.70
2018-07-30T15:22:39.188Z,64.30
2018-07-30T15:25:07.619Z,63.40
2018-07-30T15:27:36.257Z,63.60
2018-07-30T15:32:34.272Z,64.90
2018-07-30T15:35:03.143Z,63.90
2018-07-30T15:37:31.842Z,63.90
2018-07-30T15:40:00.889Z,63.10
2018-07-30T15:42:29.592Z,64.40
2018-07-30T15:44:58.144Z,63.40
2018-07-30T15:47:27.002Z,63.20
2018-07-30T15:49:55.469Z,63.80
2018-07-30T15:52:24.142Z,63.80
2018-07-30T15:54:52.758Z,64.20
2018-07-30T15:57:21.230Z,63.20
2018-07-30T15:59:50.041Z,63.00
2018-07-30T16:02:18.716Z,64.30
2018-07-30T16:04:47.271Z,63.60
2018-07-30T16:07:15.806Z,64.00
2018-07-30T16:09:44.403Z,64.40
2018-07-30T16:12:13.037Z,64.60
2018-07-30T16:14:41.519Z,63.70
2018-07-30T16:17:09.967Z,63.80
2018-07-30T16:19:38.565Z,65.10
2018-07-30T16:22:07.031Z,63.30
2018-07-30T16:24:35.560Z,64.30
2018-07-30T16:27:04.093Z,65.50
2018-07-30T16:29:32.587Z,66.10
2018-07-30T16:32:01.065Z,65.00
2018-07-30T16:34:29.443Z,64.60
2018-07-30T16:36:57.915Z,63.90
2018-07-30T16:39:26.456Z,64.00
2018-07-30T16:41:55.046Z,64.80
2018-07-30T16:44:23.609Z,64.30
2018-07-30T16:46:52.067Z,64.30
2018-07-30T16:49:20.501Z,64.40
2018-07-30T16:51:49.028Z,63.90
2018-07-30T16:54:17.591Z,63.40
2018-07-30T16:56:46.187Z,63.70
2018-07-30T16:59:14.591Z,64.20
2018-07-30T17:01:43.032Z,64.40
2018-07-30T17:04:11.509Z,63.70
2018-07-30T17:06:40.162Z,65.00
2018-07-30T17:09:10.999Z,64.30
2018-07-30T17:11:39.819Z,65.30
2018-07-30T17:14:08.509Z,65.40
2018-07-30T17:16:37.203Z,64.80
2018-07-30T17:19:05.911Z,64.60
2018-07-30T17:21:34.559Z,65.00
2018-07-30T17:24:03.018Z,64.40
2018-07-30T17:26:31.596Z,65.80
2018-07-30T17:29:00.200Z,65.00
2018-07-30T17:31:28.959Z,65.70
2018-07-30T17:33:57.356Z,65.50
2018-07-30T17:36:26.157Z,65.60
2018-07-30T17:38:54.734Z,66.00
2018-07-30T17:41:23.299Z,66.40
2018-07-30T17:43:51.952Z,66.30
2018-07-30T17:46:20.603Z,66.50
2018-07-30T17:48:49.069Z,66.80
2018-07-30T17:51:18.054Z,66.50
2018-07-30T17:53:46.632Z,67.50
2018-07-30T17:56:15.147Z,67.40
2018-07-30T17:58:43.747Z,67.90
2018-07-30T18:01:12.448Z,68.00
2018-07-30T18:03:41.091Z,68.60
2018-07-30T18:06:09.859Z,68.70
2018-07-30T18:08:38.734Z,68.60
2018-07-30T18:11:07.418Z,69.80
2018-07-30T18:13:35.897Z,69.30
2018-07-30T18:16:04.601Z,68.70
2018-07-30T18:18:33.181Z,69.00
2018-07-30T18:21:01.708Z,69.40
2018-07-30T18:23:30.376Z,70.70
2018-07-30T18:25:58.822Z,70.10
2018-07-30T18:28:27.426Z,70.40
2018-07-30T18:30:56.095Z,71.10
2018-07-30T18:33:24.746Z,70.40
2018-07-30T18:35:53.568Z,72.00
2018-07-30T18:38:22.133Z,72.00
2018-07-30T18:40:50.977Z,73.30
2018-07-30T18:43:19.453Z,72.70
2018-07-30T18:45:48.200Z,73.50
2018-07-30T18:48:16.984Z,73.60
2018-07-30T18:50:45.661Z,74.20
2018-07-30T18:53:14.254Z,74.40
2018-07-30T18:55:42.937Z,74.60
2018-07-30T18:58:11.652Z,74.40
2018-07-30T19:00:40.378Z,74.70
2018-07-30T19:03:09.142Z,75.80
2018-07-30T19:05:37.830Z,77.60
2018-07-30T19:08:07.012Z,77.00
2018-07-30T19:10:35.721Z,78.00
2018-07-30T19:13:04.209Z,76.90
2018-07-30T19:15:32.948Z,77.50
2018-07-30T19:18:01.473Z,78.00
2018-07-30T19:20:29.967Z,78.40
2018-07-30T19:22:58.420Z,81.60
2018-07-30T19:25:26.977Z,84.40
2018-07-30T19:27:55.656Z,85.10
2018-07-30T19:30:24.209Z,88.00
2018-07-30T19:32:52.828Z,86.40
2018-07-30T19:35:21.409Z,86.00
2018-07-30T19:37:50.216Z,88.10
2018-07-30T19:40:18.666Z,87.50
2018-07-30T19:42:47.366Z,90.50
2018-07-30T19:45:15.984Z,90.50
2018-07-30T19:47:44.659Z,90.60
2018-07-30T19:50:13.316Z,90.70
2018-07-30T19:55:10.211Z,90.50
2018-07-30T19:57:38.920Z,89.70
2018-07-30T20:00:08.298Z,90.10
2018-07-30T20:02:37.589Z,90.00
2018-07-30T20:05:07.247Z,91.70
2018-07-30T20:07:35.907Z,91.90
2018-07-30T20:10:04.603Z,91.60
2018-07-30T20:12:33.304Z,92.20
2018-07-30T20:15:01.874Z,92.50
2018-07-30T20:17:30.548Z,91.90
2018-07-30T20:19:59.111Z,92.20
2018-07-30T20:22:27.860Z,92.00
2018-07-30T20:24:56.424Z,92.00
2018-07-30T20:27:24.996Z,91.50
2018-07-30T20:29:53.641Z,92.20
2018-07-30T20:32:28.494Z,92.10
2018-07-30T20:34:57.068Z,92.30
2018-07-30T20:37:25.694Z,92.20
2018-07-30T20:39:54.383Z,92.80
2018-07-30T20:42:23.007Z,93.10
2018-07-30T20:44:51.856Z,95.10
2018-07-30T20:47:20.483Z,95.30
2018-07-30T20:49:49.082Z,95.40
2018-07-30T20:52:17.749Z,95.50
2018-07-30T20:54:46.419Z,96.00
2018-07-30T20:57:15.060Z,95.30
2018-07-30T20:59:43.956Z,94.80
2018-07-30T21:02:12.640Z,94.80
2018-07-30T21:07:09.644Z,94.80
2018-07-30T21:09:38.245Z,94.40
2018-07-30T21:12:06.855Z,94.20
2018-07-30T21:14:35.570Z,94.60
2018-07-30T21:17:04.226Z,95.10
2018-07-30T21:19:32.748Z,94.90
2018-07-30T21:22:01.346Z,94.70
2018-07-30T21:24:30.274Z,94.60
2018-07-30T21:26:58.961Z,94.80
2018-07-30T21:29:27.623Z,95.20
2018-07-30T21:34:24.636Z,97.50
2018-07-30T21:36:53.155Z,98.00
2018-07-30T21:39:21.837Z,97.60
2018-07-30T21:41:50.529Z,97.10
2018-07-30T21:44:19.104Z,97.40
2018-07-30T21:49:15.971Z,97.80
2018-07-30T21:54:13.163Z,99.00
2018-07-30T21:56:41.874Z,98.90
2018-07-30T22:01:38.689Z,99.70
2018-07-30T22:04:07.391Z,99.80
2018-07-30T22:06:36.100Z,99.60
2018-07-30T22:09:06.758Z,99.90
2018-07-30T22:11:35.492Z,99.90
2018-07-30T22:16:32.703Z,99.90
2018-07-30T22:19:01.359Z,99.90
2018-07-30T22:21:30.035Z,99.90
2018-07-30T22:23:58.709Z,99.90
2018-07-30T22:26:27.304Z,99.90
2018-07-30T22:31:24.217Z,99.90
2018-07-30T22:33:52.893Z,99.90
2018-07-30T22:36:21.529Z,99.90
2018-07-30T22:38:50.224Z,99.90
2018-07-30T22:41:18.821Z,99.90
2018-07-30T22:43:47.396Z,99.90
2018-07-30T22:46:15.931Z,99.90
2018-07-30T22:48:44.487Z,99.90
2018-07-30T22:51:13.023Z,99.90
2018-07-30T22:53:41.719Z,99.90
2018-07-30T22:56:10.377Z,99.90
2018-07-30T22:58:38.959Z,99.90
2018-07-30T23:01:07.805Z,99.90
2018-07-30T23:03:36.476Z,99.90
2018-07-30T23:06:05.157Z,99.90
2018-07-30T23:08:33.635Z,99.90
2018-07-30T23:13:30.547Z,99.90
2018-07-30T23:15:59.212Z,99.90
2018-07-30T23:18:27.835Z,99.90
2018-07-30T23:20:56.552Z,99.90
2018-07-30T23:23:25.146Z,99.90
2018-07-30T23:25:53.784Z,99.90
2018-07-30T23:28:22.497Z,99.90
2018-07-30T23:30:51.126Z,99.90
2018-07-30T23:33:19.749Z,99.90
2018-07-30T23:35:48.444Z,99.90
2018-07-30T23:38:17.140Z,99.90
2018-07-30T23:40:45.809Z,99.90
2018-07-30T23:43:14.431Z,99.90
2018-07-30T23:45:43.147Z,99.90
2018-07-30T23:48:11.842Z,99.90
2018-07-30T23:50:40.438Z,99.90
2018-07-30T23:53:09.174Z,99.90
2018-07-30T23:58:06.505Z,99.90
